createdAt,value
2017-10-27T00:02:26.641Z,11.20
2017-10-27T00:04:55.014Z,11.20
2017-10-27T00:07:24.885Z,11.10
2017-10-27T00:09:53.289Z,11.10
2017-10-27T00:12:21.670Z,11.10
2017-10-27T00:14:50.306Z,10.90
2017-10-27T00:17:18.684Z,10.90
2017-10-27T00:19:47.178Z,10.90
2017-10-27T00:22:15.658Z,10.80
2017-10-27T00:24:44.065Z,10.80
2017-10-27T00:27:12.446Z,10.80
2017-10-27T00:29:40.829Z,10.70
2017-10-27T00:32:09.217Z,10.60
2017-10-27T00:34:37.581Z,10.60
2017-10-27T00:37:05.961Z,10.60
2017-10-27T00:39:34.409Z,10.60
2017-10-27T00:42:03.029Z,10.50
2017-10-27T00:44:31.401Z,10.50
2017-10-27T00:46:59.794Z,10.60
2017-10-27T00:49:28.156Z,10.50
2017-10-27T00:51:56.529Z,10.60
2017-10-27T00:54:24.920Z,10.50
2017-10-27T00:56:52.592Z,10.60
2017-10-27T00:59:20.276Z,10.60
2017-10-27T01:01:49.436Z,10.60
2017-10-27T01:04:17.813Z,10.60
2017-10-27T01:06:46.205Z,10.60
2017-10-27T01:09:14.592Z,10.60
2017-10-27T01:11:42.271Z,10.60
2017-10-27T01:14:11.405Z,10.70
2017-10-27T01:16:39.124Z,10.70
2017-10-27T01:19:07.908Z,10.70
2017-10-27T01:21:36.361Z,10.70
2017-10-27T01:24:04.751Z,10.70
2017-10-27T01:26:33.125Z,10.70
2017-10-27T01:29:00.797Z,10.70
2017-10-27T01:31:28.845Z,10.70
2017-10-27T01:33:56.885Z,10.70
2017-10-27T01:36:24.585Z,10.70
2017-10-27T01:38:52.277Z,10.70
2017-10-27T01:41:21.064Z,10.70
2017-10-27T01:43:49.853Z,10.70
2017-10-27T01:46:18.693Z,10.70
2017-10-27T01:48:47.065Z,10.70
2017-10-27T01:51:14.904Z,10.70
2017-10-27T01:53:42.944Z,10.70
2017-10-27T01:56:11.748Z,10.70
2017-10-27T01:58:39.669Z,10.70
2017-10-27T02:01:07.401Z,10.70
2017-10-27T02:03:35.084Z,10.70
2017-10-27T02:06:02.772Z,10.80
2017-10-27T02:08:30.485Z,10.70
2017-10-27T02:10:58.166Z,10.80
2017-10-27T02:13:25.860Z,10.80
2017-10-27T02:15:53.561Z,10.80
2017-10-27T02:18:21.238Z,10.80
2017-10-27T02:20:49.266Z,10.70
2017-10-27T02:23:18.517Z,10.70
2017-10-27T02:25:46.205Z,10.70
2017-10-27T02:28:13.891Z,10.80
2017-10-27T02:30:42.712Z,10.60
2017-10-27T02:33:10.647Z,10.60
2017-10-27T02:35:39.448Z,10.60
2017-10-27T02:38:07.157Z,10.50
2017-10-27T02:40:35.196Z,10.50
2017-10-27T02:43:03.563Z,10.30
2017-10-27T02:45:31.983Z,10.20
2017-10-27T02:48:00.349Z,10.20
2017-10-27T02:50:28.721Z,10.20
2017-10-27T02:52:57.142Z,10.20
2017-10-27T02:55:25.516Z,10.20
2017-10-27T02:57:53.548Z,10.20
2017-10-27T03:00:21.964Z,10.20
2017-10-27T03:02:50.357Z,10.20
2017-10-27T03:05:18.729Z,10.20
2017-10-27T03:07:47.110Z,10.20
2017-10-27T03:10:16.293Z,10.20
2017-10-27T03:12:44.428Z,10.20
2017-10-27T03:15:12.922Z,10.20
2017-10-27T03:17:41.309Z,10.30
2017-10-27T03:20:09.693Z,10.30
2017-10-27T03:22:38.074Z,10.40
2017-10-27T03:25:06.437Z,10.40
2017-10-27T03:27:34.826Z,10.40
2017-10-27T03:30:03.320Z,10.50
2017-10-27T03:32:31.693Z,10.50
2017-10-27T03:34:59.747Z,10.50
2017-10-27T03:37:28.155Z,10.50
2017-10-27T03:39:56.551Z,10.60
2017-10-27T03:42:25.699Z,10.60
2017-10-27T03:44:54.180Z,10.60
2017-10-27T03:47:22.553Z,10.50
2017-10-27T03:49:51.696Z,10.60
2017-10-27T03:52:20.860Z,10.50
2017-10-27T03:54:49.225Z,10.50
2017-10-27T03:57:16.922Z,10.50
2017-10-27T03:59:44.869Z,10.50
2017-10-27T04:02:13.250Z,10.50
2017-10-27T04:04:41.617Z,10.50
2017-10-27T04:07:10.317Z,10.50
2017-10-27T04:09:38.684Z,10.50
2017-10-27T04:12:07.053Z,10.50
2017-10-27T04:14:35.544Z,10.50
2017-10-27T04:17:03.730Z,10.50
2017-10-27T04:19:32.105Z,10.50
2017-10-27T04:22:00.507Z,10.50
2017-10-27T04:24:29.150Z,10.50
2017-10-27T04:26:57.526Z,10.40
2017-10-27T04:29:25.920Z,10.50
2017-10-27T04:31:54.298Z,10.40
2017-10-27T04:34:22.693Z,10.50
2017-10-27T04:36:51.092Z,10.40
2017-10-27T04:39:19.913Z,10.40
2017-10-27T04:41:48.283Z,10.40
2017-10-27T04:44:16.689Z,10.50
2017-10-27T04:46:45.086Z,10.40
2017-10-27T04:49:13.531Z,10.40
2017-10-27T04:51:41.975Z,10.40
2017-10-27T04:54:10.454Z,10.40
2017-10-27T04:56:39.598Z,10.50
2017-10-27T04:59:08.021Z,10.50
2017-10-27T05:01:37.183Z,10.50
2017-10-27T05:04:05.569Z,10.40
2017-10-27T05:06:33.990Z,10.50
2017-10-27T05:09:02.476Z,10.50
2017-10-27T05:11:30.924Z,10.50
2017-10-27T05:13:59.312Z,10.60
2017-10-27T05:16:34.041Z,10.50
2017-10-27T05:19:08.615Z,10.50
2017-10-27T05:21:42.507Z,10.50
2017-10-27T05:24:16.352Z,10.60
2017-10-27T05:26:44.729Z,10.50
2017-10-27T05:29:13.380Z,10.50
2017-10-27T05:31:41.790Z,10.50
2017-10-27T05:34:10.409Z,10.60
2017-10-27T05:36:39.609Z,10.60
2017-10-27T05:39:08.870Z,10.60
2017-10-27T05:41:37.252Z,10.60
2017-10-27T05:44:05.641Z,10.60
2017-10-27T05:46:33.789Z,10.60
2017-10-27T05:49:02.173Z,10.60
2017-10-27T05:51:30.552Z,10.60
2017-10-27T05:53:59.053Z,10.50
2017-10-27T05:56:27.424Z,10.50
2017-10-27T05:58:55.801Z,10.60
2017-10-27T06:01:24.206Z,10.50
2017-10-27T06:03:53.349Z,10.50
2017-10-27T06:06:21.718Z,10.50
2017-10-27T06:08:49.928Z,10.50
2017-10-27T06:11:18.302Z,10.40
2017-10-27T06:13:46.689Z,10.40
2017-10-27T06:16:15.076Z,10.40
2017-10-27T06:18:44.220Z,10.40
2017-10-27T06:21:12.591Z,10.40
2017-10-27T06:23:40.999Z,10.40
2017-10-27T06:26:09.361Z,10.40
2017-10-27T06:28:37.777Z,10.30
2017-10-27T06:31:06.169Z,10.30
2017-10-27T06:33:35.309Z,10.30
2017-10-27T06:36:03.686Z,10.30
2017-10-27T06:38:32.076Z,10.30
2017-10-27T06:41:00.453Z,10.30
2017-10-27T06:43:28.828Z,10.30
2017-10-27T06:45:57.240Z,10.20
2017-10-27T06:48:25.616Z,10.20
2017-10-27T06:50:53.993Z,10.20
2017-10-27T06:53:22.392Z,10.20
2017-10-27T06:55:51.529Z,10.10
2017-10-27T06:58:19.565Z,10.10
2017-10-27T07:00:48.737Z,10.10
2017-10-27T07:03:16.761Z,10.10
2017-10-27T07:05:45.142Z,10.10
2017-10-27T07:08:13.626Z,10.10
2017-10-27T07:10:42.023Z,10.20
2017-10-27T07:13:10.390Z,10.20
2017-10-27T07:15:38.792Z,10.20
2017-10-27T07:18:07.493Z,10.20
2017-10-27T07:20:35.914Z,10.10
2017-10-27T07:23:03.991Z,10.10
2017-10-27T07:25:32.358Z,10.10
2017-10-27T07:28:00.729Z,10.10
2017-10-27T07:30:28.528Z,10.10
2017-10-27T07:32:56.249Z,10.10
2017-10-27T07:35:23.929Z,10.10
2017-10-27T07:37:51.973Z,10.10
2017-10-27T07:40:20.439Z,10.10
2017-10-27T07:42:49.234Z,10.10
2017-10-27T07:45:17.710Z,10.10
2017-10-27T07:47:46.157Z,10.20
2017-10-27T07:50:14.533Z,10.20
2017-10-27T07:52:42.271Z,10.20
2017-10-27T07:55:09.954Z,10.30
2017-10-27T07:57:38.408Z,10.30
2017-10-27T08:00:06.201Z,10.30
2017-10-27T08:02:33.890Z,10.30
2017-10-27T08:05:01.573Z,10.30
2017-10-27T08:07:30.130Z,10.30
2017-10-27T08:09:58.162Z,10.30
2017-10-27T08:12:26.193Z,10.30
2017-10-27T08:14:54.652Z,10.30
2017-10-27T08:17:22.688Z,10.30
2017-10-27T08:19:50.797Z,10.30
2017-10-27T08:22:19.734Z,10.30
2017-10-27T08:24:47.422Z,10.20
2017-10-27T08:27:16.122Z,10.20
2017-10-27T08:29:45.084Z,10.20
2017-10-27T08:32:14.733Z,10.20
2017-10-27T08:34:42.424Z,10.10
2017-10-27T08:37:11.274Z,10.20
2017-10-27T08:39:39.315Z,10.20
2017-10-27T08:42:07.169Z,10.20
2017-10-27T08:44:35.212Z,10.30
2017-10-27T08:47:04.364Z,10.30
2017-10-27T08:49:32.053Z,10.30
2017-10-27T08:52:01.331Z,10.10
2017-10-27T08:54:29.013Z,10.10
2017-10-27T08:56:58.199Z,10.40
2017-10-27T08:59:26.591Z,10.40
2017-10-27T09:01:54.684Z,10.50
2017-10-27T09:04:22.733Z,10.60
2017-10-27T09:06:51.313Z,10.70
2017-10-27T09:09:19.436Z,10.70
2017-10-27T09:11:47.134Z,10.90
2017-10-27T09:14:14.854Z,10.60
2017-10-27T09:16:43.334Z,10.70
2017-10-27T09:19:11.377Z,10.80
2017-10-27T09:21:39.841Z,10.70
2017-10-27T09:24:07.525Z,10.60
2017-10-27T09:26:35.204Z,10.70
2017-10-27T09:29:03.437Z,10.70
2017-10-27T09:31:31.810Z,10.70
2017-10-27T09:33:59.715Z,10.80
2017-10-27T09:36:27.768Z,11.00
2017-10-27T09:38:56.221Z,11.00
2017-10-27T09:41:24.267Z,11.00
2017-10-27T09:43:52.661Z,11.20
2017-10-27T09:46:20.345Z,11.30
2017-10-27T09:48:48.021Z,11.30
2017-10-27T09:51:16.528Z,11.30
2017-10-27T09:53:44.557Z,11.30
2017-10-27T09:56:13.382Z,11.00
2017-10-27T09:58:41.082Z,11.00
2017-10-27T10:01:08.780Z,11.10
2017-10-27T10:03:37.226Z,11.20
2017-10-27T10:06:04.942Z,11.20
2017-10-27T10:08:32.633Z,11.10
2017-10-27T10:11:00.681Z,11.20
2017-10-27T10:13:28.505Z,11.20
2017-10-27T10:15:56.206Z,11.40
2017-10-27T10:18:24.232Z,11.70
2017-10-27T10:20:52.042Z,11.50
2017-10-27T10:23:19.749Z,11.50
2017-10-27T10:25:47.459Z,11.40
2017-10-27T10:28:15.159Z,11.40
2017-10-27T10:30:42.857Z,11.30
2017-10-27T10:33:11.317Z,11.60
2017-10-27T10:35:39.370Z,11.60
2017-10-27T10:38:07.050Z,11.50
2017-10-27T10:40:35.295Z,11.50
2017-10-27T10:43:03.055Z,11.60
2017-10-27T10:45:30.821Z,11.70
2017-10-27T10:47:58.508Z,11.60
2017-10-27T10:50:26.238Z,11.50
2017-10-27T10:52:54.322Z,11.30
2017-10-27T10:55:22.025Z,11.20
2017-10-27T10:57:49.741Z,11.30
2017-10-27T11:00:17.447Z,11.30
2017-10-27T11:02:45.270Z,11.40
2017-10-27T11:05:13.013Z,11.30
2017-10-27T11:07:41.844Z,11.50
2017-10-27T11:10:10.320Z,11.60
2017-10-27T11:12:38.137Z,11.80
2017-10-27T11:15:06.162Z,11.90
2017-10-27T11:17:34.190Z,11.90
2017-10-27T11:20:02.716Z,11.80
2017-10-27T11:22:30.432Z,11.70
2017-10-27T11:24:58.487Z,11.60
2017-10-27T11:27:26.960Z,11.90
2017-10-27T11:29:54.791Z,11.90
2017-10-27T11:32:24.529Z,11.80
2017-10-27T11:34:54.483Z,11.80
2017-10-27T11:37:22.623Z,11.80
2017-10-27T11:39:51.640Z,11.70
2017-10-27T11:42:19.881Z,11.70
2017-10-27T11:44:49.027Z,11.70
2017-10-27T11:47:17.490Z,11.70
2017-10-27T11:49:46.234Z,11.60
2017-10-27T11:52:14.647Z,11.50
2017-10-27T11:54:43.015Z,11.40
2017-10-27T11:57:12.749Z,11.30
2017-10-27T11:59:41.150Z,11.30
2017-10-27T12:02:09.530Z,11.30
2017-10-27T12:04:37.942Z,11.30
2017-10-27T12:07:06.005Z,11.30
2017-10-27T12:09:33.762Z,11.60
2017-10-27T12:12:01.580Z,11.90
2017-10-27T12:14:29.281Z,12.10
2017-10-27T12:17:02.155Z,12.00
2017-10-27T12:19:30.305Z,11.70
2017-10-27T12:21:57.991Z,11.60
2017-10-27T12:24:25.794Z,11.70
2017-10-27T12:26:54.262Z,12.20
2017-10-27T12:29:22.307Z,12.20
2017-10-27T12:31:50.356Z,12.30
2017-10-27T12:34:18.053Z,12.20
2017-10-27T12:36:46.086Z,12.00
2017-10-27T12:39:13.856Z,12.00
2017-10-27T12:41:41.625Z,12.00
2017-10-27T12:44:09.307Z,12.00
2017-10-27T12:46:37.009Z,12.00
2017-10-27T12:49:05.465Z,12.10
2017-10-27T12:51:33.914Z,12.10
2017-10-27T12:54:02.412Z,12.00
2017-10-27T12:56:30.441Z,11.90
2017-10-27T12:58:58.133Z,11.80
2017-10-27T13:01:25.828Z,11.90
2017-10-27T13:03:54.968Z,11.80
2017-10-27T13:06:23.349Z,11.80
2017-10-27T13:08:51.852Z,11.80
2017-10-27T13:11:20.233Z,11.90
2017-10-27T13:13:47.911Z,12.00
2017-10-27T13:16:15.639Z,12.10
2017-10-27T13:18:43.343Z,12.10
2017-10-27T13:21:11.811Z,12.10
2017-10-27T13:23:39.604Z,12.10
2017-10-27T13:26:08.769Z,11.80
2017-10-27T13:28:36.445Z,11.80
2017-10-27T13:31:04.165Z,11.60
2017-10-27T13:33:31.870Z,11.50
2017-10-27T13:36:00.329Z,11.40
2017-10-27T13:38:28.037Z,11.40
2017-10-27T13:40:56.469Z,11.40
2017-10-27T13:43:24.860Z,11.40
2017-10-27T13:45:53.013Z,11.40
2017-10-27T13:48:21.024Z,11.40
2017-10-27T13:50:49.811Z,11.40
2017-10-27T13:53:18.361Z,11.40
2017-10-27T13:55:46.045Z,11.40
2017-10-27T13:58:13.532Z,11.50
2017-10-27T14:00:41.225Z,11.60
2017-10-27T14:03:09.249Z,11.80
2017-10-27T14:05:38.036Z,11.80
2017-10-27T14:08:06.513Z,11.90
2017-10-27T14:10:34.968Z,11.90
2017-10-27T14:13:02.651Z,11.90
2017-10-27T14:15:31.133Z,11.90
2017-10-27T14:17:59.533Z,11.90
2017-10-27T14:20:27.907Z,11.80
2017-10-27T14:22:56.290Z,11.90
2017-10-27T14:25:24.663Z,12.00
2017-10-27T14:27:52.720Z,12.10
2017-10-27T14:30:21.952Z,12.20
2017-10-27T14:32:50.373Z,12.20
2017-10-27T14:35:18.814Z,12.20
2017-10-27T14:37:46.920Z,12.10
2017-10-27T14:40:14.970Z,12.10
2017-10-27T14:42:43.153Z,12.10
2017-10-27T14:45:11.977Z,12.10
2017-10-27T14:47:40.795Z,12.00
2017-10-27T14:50:09.209Z,12.00
2017-10-27T14:52:37.676Z,12.00
2017-10-27T14:55:05.705Z,12.00
2017-10-27T14:57:33.765Z,12.00
2017-10-27T15:00:02.967Z,12.00
2017-10-27T15:02:32.114Z,12.00
2017-10-27T15:05:00.489Z,12.00
2017-10-27T15:07:29.677Z,12.00
2017-10-27T15:09:58.061Z,12.00
2017-10-27T15:12:26.098Z,12.00
2017-10-27T15:14:54.598Z,12.00
2017-10-27T15:17:22.971Z,12.00
2017-10-27T15:19:51.350Z,11.90
2017-10-27T15:22:19.401Z,11.90
2017-10-27T15:24:47.768Z,11.90
2017-10-27T15:27:16.232Z,11.90
2017-10-27T15:29:45.219Z,11.90
2017-10-27T15:32:13.706Z,11.90
2017-10-27T15:34:45.121Z,11.90
2017-10-27T15:37:16.788Z,11.90
2017-10-27T15:39:45.458Z,11.80
2017-10-27T15:42:14.655Z,11.70
2017-10-27T15:44:43.056Z,11.70
2017-10-27T15:47:11.480Z,11.70
2017-10-27T15:49:39.929Z,11.70
2017-10-27T15:52:08.319Z,11.70
2017-10-27T15:54:37.483Z,11.60
2017-10-27T15:57:05.160Z,11.60
2017-10-27T15:59:33.561Z,11.60
2017-10-27T16:02:02.707Z,11.50
2017-10-27T16:04:31.073Z,11.50
2017-10-27T16:06:59.488Z,11.50
2017-10-27T16:09:27.873Z,11.50
2017-10-27T16:11:56.260Z,11.50
2017-10-27T16:14:25.437Z,11.30
2017-10-27T16:16:53.856Z,11.40
2017-10-27T16:19:22.237Z,11.30
2017-10-27T16:21:50.661Z,11.30
2017-10-27T16:24:19.057Z,11.20
2017-10-27T16:26:47.512Z,11.20
2017-10-27T16:29:15.913Z,11.10
2017-10-27T16:31:44.300Z,11.00
2017-10-27T16:34:12.372Z,11.00
2017-10-27T16:36:41.008Z,10.90
2017-10-27T16:39:09.369Z,10.90
2017-10-27T16:41:37.751Z,10.90
2017-10-27T16:44:06.183Z,10.80
2017-10-27T16:46:34.597Z,10.80
2017-10-27T16:49:02.984Z,10.80
2017-10-27T16:51:31.373Z,10.80
2017-10-27T16:53:59.793Z,10.70
2017-10-27T16:56:28.356Z,10.80
2017-10-27T16:58:56.764Z,10.70
2017-10-27T17:01:25.154Z,10.70
2017-10-27T17:03:54.387Z,10.60
2017-10-27T17:06:22.968Z,10.50
2017-10-27T17:08:51.393Z,10.50
2017-10-27T17:11:19.797Z,10.50
2017-10-27T17:13:48.969Z,10.40
2017-10-27T17:16:17.361Z,10.40
2017-10-27T17:18:45.785Z,10.40
2017-10-27T17:21:15.478Z,10.50
2017-10-27T17:23:43.932Z,10.40
2017-10-27T17:26:13.079Z,10.40
2017-10-27T17:28:42.865Z,10.40
2017-10-27T17:31:11.402Z,10.30
2017-10-27T17:33:39.935Z,10.20
2017-10-27T17:36:08.005Z,10.10
2017-10-27T17:38:36.813Z,9.90
2017-10-27T17:41:04.503Z,9.80
2017-10-27T17:43:33.365Z,9.70
2017-10-27T17:46:01.069Z,9.60
2017-10-27T17:48:29.504Z,9.40
2017-10-27T17:50:57.904Z,9.30
2017-10-27T17:53:26.274Z,9.20
2017-10-27T17:55:54.652Z,9.30
2017-10-27T17:58:23.057Z,9.30
2017-10-27T18:00:51.437Z,9.30
2017-10-27T18:03:19.824Z,9.30
2017-10-27T18:05:48.225Z,9.20
2017-10-27T18:08:17.361Z,9.00
2017-10-27T18:10:45.745Z,9.00
2017-10-27T18:13:14.137Z,9.00
2017-10-27T18:15:41.847Z,9.00
2017-10-27T18:18:10.244Z,9.00
2017-10-27T18:20:38.651Z,9.00
2017-10-27T18:23:07.016Z,9.00
2017-10-27T18:25:34.696Z,9.00
2017-10-27T18:28:03.100Z,9.00
2017-10-27T18:30:31.472Z,8.90
2017-10-27T18:32:59.504Z,8.90
2017-10-27T18:35:27.894Z,8.90
2017-10-27T18:37:56.269Z,8.80
2017-10-27T18:40:24.293Z,8.70
2017-10-27T18:42:53.460Z,8.60
2017-10-27T18:45:21.852Z,8.60
2017-10-27T18:47:50.247Z,8.60
2017-10-27T18:50:18.643Z,8.60
2017-10-27T18:52:47.033Z,8.50
2017-10-27T18:55:15.398Z,8.50
2017-10-27T18:57:43.821Z,8.50
2017-10-27T19:00:12.199Z,8.40
2017-10-27T19:02:40.564Z,8.40
2017-10-27T19:05:08.959Z,8.50
2017-10-27T19:07:37.342Z,8.50
2017-10-27T19:10:05.714Z,8.40
2017-10-27T19:12:34.106Z,8.50
2017-10-27T19:15:02.490Z,8.60
2017-10-27T19:17:31.633Z,8.60
2017-10-27T19:20:00.042Z,8.60
2017-10-27T19:22:29.212Z,8.60
2017-10-27T19:24:57.589Z,8.60
2017-10-27T19:27:25.627Z,8.70
2017-10-27T19:29:54.009Z,8.80
2017-10-27T19:32:22.385Z,9.00
2017-10-27T19:34:51.534Z,9.00
2017-10-27T19:37:19.910Z,9.00
2017-10-27T19:39:48.277Z,9.00
2017-10-27T19:42:16.361Z,9.00
2017-10-27T19:44:44.787Z,9.10
2017-10-27T19:47:13.924Z,9.20
2017-10-27T19:49:42.336Z,9.20
2017-10-27T19:52:10.723Z,9.20
2017-10-27T19:54:39.866Z,9.30
2017-10-27T19:57:08.281Z,9.30
2017-10-27T19:59:36.669Z,9.30
2017-10-27T20:02:05.826Z,9.40
2017-10-27T20:04:35.016Z,9.40
2017-10-27T20:07:03.432Z,9.40
2017-10-27T20:09:31.745Z,9.40
2017-10-27T20:11:59.797Z,9.40
2017-10-27T20:14:28.970Z,9.40
2017-10-27T20:16:58.145Z,9.40
2017-10-27T20:19:26.543Z,9.30
2017-10-27T20:21:55.699Z,9.40
2017-10-27T20:24:24.103Z,9.30
2017-10-27T20:26:52.549Z,9.40
2017-10-27T20:29:20.933Z,9.40
2017-10-27T20:31:49.296Z,9.40
2017-10-27T20:34:18.053Z,9.40
2017-10-27T20:36:46.344Z,9.40
2017-10-27T20:39:15.489Z,9.50
2017-10-27T20:41:43.910Z,9.40
2017-10-27T20:44:12.289Z,9.40
2017-10-27T20:46:40.671Z,9.40
2017-10-27T20:49:09.065Z,9.50
2017-10-27T20:51:38.193Z,9.50
2017-10-27T20:54:06.569Z,9.40
2017-10-27T20:56:35.035Z,9.40
2017-10-27T20:59:03.420Z,9.50
2017-10-27T21:01:31.784Z,9.50
2017-10-27T21:04:00.187Z,9.50
2017-10-27T21:06:30.219Z,9.50
2017-10-27T21:08:58.584Z,9.50
2017-10-27T21:11:27.177Z,9.50
2017-10-27T21:13:55.566Z,9.50
2017-10-27T21:16:23.931Z,9.50
2017-10-27T21:18:52.322Z,9.50
2017-10-27T21:21:20.356Z,9.50
2017-10-27T21:23:48.745Z,9.50
2017-10-27T21:26:17.129Z,9.50
2017-10-27T21:28:45.494Z,9.50
2017-10-27T21:31:13.913Z,9.50
2017-10-27T21:33:41.958Z,9.50
2017-10-27T21:36:10.327Z,9.40
2017-10-27T21:38:38.353Z,9.40
2017-10-27T21:41:07.514Z,9.40
2017-10-27T21:43:36.924Z,9.40
2017-10-27T21:46:05.002Z,9.30
2017-10-27T21:48:33.050Z,9.40
2017-10-27T21:51:01.073Z,9.40
2017-10-27T21:53:30.286Z,9.40
2017-10-27T21:55:58.677Z,9.40
2017-10-27T21:58:27.104Z,9.50
2017-10-27T22:00:55.461Z,9.50
2017-10-27T22:03:23.910Z,9.40
2017-10-27T22:05:52.278Z,9.20
2017-10-27T22:08:20.654Z,9.20
2017-10-27T22:10:49.043Z,9.20
2017-10-27T22:13:17.432Z,9.20
2017-10-27T22:15:45.801Z,9.30
2017-10-27T22:18:14.231Z,9.20
2017-10-27T22:20:41.928Z,9.10
2017-10-27T22:23:10.305Z,9.30
2017-10-27T22:25:38.704Z,9.20
2017-10-27T22:28:07.089Z,9.00
2017-10-27T22:30:36.244Z,9.00
2017-10-27T22:33:05.408Z,9.00
2017-10-27T22:35:33.780Z,9.00
2017-10-27T22:38:02.156Z,9.00
2017-10-27T22:40:30.552Z,8.90
2017-10-27T22:42:58.946Z,8.90
2017-10-27T22:45:28.081Z,8.70
2017-10-27T22:47:56.468Z,8.60
2017-10-27T22:50:24.843Z,8.60
2017-10-27T22:52:53.214Z,8.60
2017-10-27T22:55:21.601Z,8.50
2017-10-27T22:57:49.980Z,8.50
2017-10-27T23:00:18.352Z,8.50
2017-10-27T23:02:46.754Z,8.50
2017-10-27T23:05:15.142Z,8.40
2017-10-27T23:21:04.935Z,8.30
2017-10-27T23:23:34.069Z,8.30
2017-10-27T23:26:02.445Z,8.30
2017-10-27T23:28:30.829Z,8.20
2017-10-27T23:30:59.214Z,8.10
2017-10-27T23:33:27.587Z,8.10
2017-10-27T23:35:55.988Z,8.10
2017-10-27T23:38:24.604Z,8.20
2017-10-27T23:40:53.748Z,8.30
2017-10-27T23:43:22.152Z,8.30
2017-10-27T23:45:50.532Z,8.20
2017-10-27T23:48:18.900Z,8.10
2017-10-27T23:50:47.287Z,8.20
2017-10-27T23:53:15.664Z,8.30
2017-10-27T23:55:44.037Z,8.30
2017-10-27T23:58:12.465Z,8.20
